sensor_id;sensor_type;location;lat;lon;timestamp;P1;durP1;ratioP1;P2;durP2;ratioP2
25946;SDS011;13745;51.470;9.894;2024-01-30T00:01:11;7.70;;;4.78;;
25946;SDS011;13745;51.470;9.894;2024-01-30T00:03:56;6.63;;;4.65;;
25946;SDS011;13745;51.470;9.894;2024-01-30T00:06:41;9.48;;;6.07;;
25946;SDS011;13745;51.470;9.894;2024-01-30T00:09:26;7.10;;;4.88;;
25946;SDS011;13745;51.470;9.894;2024-01-30T00:12:11;6.65;;;4.55;;
25946;SDS011;13745;51.470;9.894;2024-01-30T00:14:57;8.25;;;4.47;;
25946;SDS011;13745;51.470;9.894;2024-01-30T00:17:42;7.32;;;5.13;;
25946;SDS011;13745;51.470;9.894;2024-01-30T00:20:27;8.80;;;4.93;;
25946;SDS011;13745;51.470;9.894;2024-01-30T00:23:12;9.40;;;4.57;;
25946;SDS011;13745;51.470;9.894;2024-01-30T00:25:58;9.10;;;4.75;;
25946;SDS011;13745;51.470;9.894;2024-01-30T00:28:43;7.00;;;4.97;;
25946;SDS011;13745;51.470;9.894;2024-01-30T00:31:29;6.00;;;5.05;;
25946;SDS011;13745;51.470;9.894;2024-01-30T00:34:15;10.25;;;5.03;;
25946;SDS011;13745;51.470;9.894;2024-01-30T00:36:59;9.77;;;5.20;;
25946;SDS011;13745;51.470;9.894;2024-01-30T00:39:44;7.00;;;4.75;;
25946;SDS011;13745;51.470;9.894;2024-01-30T00:42:29;6.15;;;4.65;;
25946;SDS011;13745;51.470;9.894;2024-01-30T00:45:15;5.40;;;4.28;;
25946;SDS011;13745;51.470;9.894;2024-01-30T00:48:01;7.30;;;4.57;;
25946;SDS011;13745;51.470;9.894;2024-01-30T00:50:47;7.53;;;4.20;;
25946;SDS011;13745;51.470;9.894;2024-01-30T00:53:32;6.80;;;4.95;;
25946;SDS011;13745;51.470;9.894;2024-01-30T00:56:17;8.32;;;5.53;;
25946;SDS011;13745;51.470;9.894;2024-01-30T00:59:02;8.55;;;5.18;;
25946;SDS011;13745;51.470;9.894;2024-01-30T01:01:47;7.80;;;4.97;;
25946;SDS011;13745;51.470;9.894;2024-01-30T01:04:34;11.05;;;5.45;;
25946;SDS011;13745;51.470;9.894;2024-01-30T01:07:19;7.20;;;4.85;;
25946;SDS011;13745;51.470;9.894;2024-01-30T01:10:04;6.15;;;5.00;;
25946;SDS011;13745;51.470;9.894;2024-01-30T01:12:50;8.52;;;5.28;;
25946;SDS011;13745;51.470;9.894;2024-01-30T01:15:35;9.10;;;5.03;;
25946;SDS011;13745;51.470;9.894;2024-01-30T01:18:20;7.88;;;4.97;;
25946;SDS011;13745;51.470;9.894;2024-01-30T01:21:07;6.97;;;4.85;;
25946;SDS011;13745;51.470;9.894;2024-01-30T01:23:52;6.13;;;4.75;;
25946;SDS011;13745;51.470;9.894;2024-01-30T01:26:38;9.63;;;5.47;;
25946;SDS011;13745;51.470;9.894;2024-01-30T01:29:23;9.05;;;5.20;;
25946;SDS011;13745;51.470;9.894;2024-01-30T01:32:12;7.20;;;5.00;;
25946;SDS011;13745;51.470;9.894;2024-01-30T01:34:57;8.57;;;5.25;;
25946;SDS011;13745;51.470;9.894;2024-01-30T01:37:43;8.85;;;5.07;;
25946;SDS011;13745;51.470;9.894;2024-01-30T01:40:29;8.48;;;4.88;;
25946;SDS011;13745;51.470;9.894;2024-01-30T01:43:14;8.85;;;5.13;;
25946;SDS011;13745;51.470;9.894;2024-01-30T01:45:59;8.57;;;5.07;;
25946;SDS011;13745;51.470;9.894;2024-01-30T01:48:44;7.28;;;5.32;;
25946;SDS011;13745;51.470;9.894;2024-01-30T01:51:31;8.88;;;5.05;;
25946;SDS011;13745;51.470;9.894;2024-01-30T01:54:19;7.18;;;5.30;;
25946;SDS011;13745;51.470;9.894;2024-01-30T01:57:05;7.93;;;5.60;;
25946;SDS011;13745;51.470;9.894;2024-01-30T01:59:50;7.45;;;4.70;;
25946;SDS011;13745;51.470;9.894;2024-01-30T02:02:36;10.30;;;5.03;;
25946;SDS011;13745;51.470;9.894;2024-01-30T02:05:22;6.78;;;4.80;;
25946;SDS011;13745;51.470;9.894;2024-01-30T02:08:08;7.80;;;4.90;;
25946;SDS011;13745;51.470;9.894;2024-01-30T02:10:55;11.13;;;5.88;;
25946;SDS011;13745;51.470;9.894;2024-01-30T02:13:41;7.07;;;5.30;;
25946;SDS011;13745;51.470;9.894;2024-01-30T02:16:25;6.97;;;5.10;;
25946;SDS011;13745;51.470;9.894;2024-01-30T02:19:11;7.07;;;4.88;;
25946;SDS011;13745;51.470;9.894;2024-01-30T02:21:58;7.40;;;4.93;;
25946;SDS011;13745;51.470;9.894;2024-01-30T02:24:43;7.95;;;4.78;;
25946;SDS011;13745;51.470;9.894;2024-01-30T02:27:28;9.95;;;5.25;;
25946;SDS011;13745;51.470;9.894;2024-01-30T02:30:13;9.73;;;5.32;;
25946;SDS011;13745;51.470;9.894;2024-01-30T02:32:59;6.55;;;4.85;;
25946;SDS011;13745;51.470;9.894;2024-01-30T02:35:43;7.05;;;4.95;;
25946;SDS011;13745;51.470;9.894;2024-01-30T02:38:30;10.00;;;5.20;;
25946;SDS011;13745;51.470;9.894;2024-01-30T02:41:15;7.68;;;4.97;;
25946;SDS011;13745;51.470;9.894;2024-01-30T02:44:00;6.93;;;4.93;;
25946;SDS011;13745;51.470;9.894;2024-01-30T02:46:46;10.30;;;5.53;;
25946;SDS011;13745;51.470;9.894;2024-01-30T02:49:31;8.05;;;5.20;;
25946;SDS011;13745;51.470;9.894;2024-01-30T02:52:16;10.45;;;4.80;;
25946;SDS011;13745;51.470;9.894;2024-01-30T02:55:02;8.55;;;5.00;;
25946;SDS011;13745;51.470;9.894;2024-01-30T02:57:47;7.85;;;5.45;;
25946;SDS011;13745;51.470;9.894;2024-01-30T03:00:33;10.45;;;5.90;;
25946;SDS011;13745;51.470;9.894;2024-01-30T03:03:18;7.88;;;4.65;;
25946;SDS011;13745;51.470;9.894;2024-01-30T03:06:03;9.63;;;4.95;;
25946;SDS011;13745;51.470;9.894;2024-01-30T03:08:49;6.88;;;5.28;;
25946;SDS011;13745;51.470;9.894;2024-01-30T03:11:36;8.50;;;5.30;;
25946;SDS011;13745;51.470;9.894;2024-01-30T03:14:21;10.60;;;5.70;;
25946;SDS011;13745;51.470;9.894;2024-01-30T03:17:07;6.68;;;4.97;;
25946;SDS011;13745;51.470;9.894;2024-01-30T03:19:52;8.93;;;4.65;;
25946;SDS011;13745;51.470;9.894;2024-01-30T03:22:37;8.65;;;5.43;;
25946;SDS011;13745;51.470;9.894;2024-01-30T03:25:22;7.88;;;5.28;;
25946;SDS011;13745;51.470;9.894;2024-01-30T03:28:09;9.15;;;5.85;;
25946;SDS011;13745;51.470;9.894;2024-01-30T03:30:54;7.22;;;5.45;;
25946;SDS011;13745;51.470;9.894;2024-01-30T03:33:39;8.15;;;4.93;;
25946;SDS011;13745;51.470;9.894;2024-01-30T03:36:24;10.65;;;5.75;;
25946;SDS011;13745;51.470;9.894;2024-01-30T03:39:09;7.20;;;5.72;;
25946;SDS011;13745;51.470;9.894;2024-01-30T03:41:54;10.00;;;5.15;;
25946;SDS011;13745;51.470;9.894;2024-01-30T03:44:41;11.65;;;5.57;;
25946;SDS011;13745;51.470;9.894;2024-01-30T03:47:26;8.27;;;5.15;;
25946;SDS011;13745;51.470;9.894;2024-01-30T03:50:11;8.70;;;5.10;;
25946;SDS011;13745;51.470;9.894;2024-01-30T03:52:56;7.93;;;5.07;;
25946;SDS011;13745;51.470;9.894;2024-01-30T03:55:41;11.68;;;5.47;;
25946;SDS011;13745;51.470;9.894;2024-01-30T03:58:26;9.65;;;5.18;;
25946;SDS011;13745;51.470;9.894;2024-01-30T04:01:14;7.35;;;4.95;;
25946;SDS011;13745;51.470;9.894;2024-01-30T04:03:59;8.20;;;5.35;;
25946;SDS011;13745;51.470;9.894;2024-01-30T04:06:44;9.57;;;5.45;;
25946;SDS011;13745;51.470;9.894;2024-01-30T04:09:29;8.70;;;5.38;;
25946;SDS011;13745;51.470;9.894;2024-01-30T04:12:16;9.50;;;5.30;;
25946;SDS011;13745;51.470;9.894;2024-01-30T04:15:01;8.65;;;5.25;;
25946;SDS011;13745;51.470;9.894;2024-01-30T04:17:49;7.40;;;5.20;;
25946;SDS011;13745;51.470;9.894;2024-01-30T04:20:34;11.07;;;5.15;;
25946;SDS011;13745;51.470;9.894;2024-01-30T04:23:19;11.65;;;5.30;;
25946;SDS011;13745;51.470;9.894;2024-01-30T04:26:04;9.13;;;5.75;;
25946;SDS011;13745;51.470;9.894;2024-01-30T04:28:49;15.32;;;5.20;;
25946;SDS011;13745;51.470;9.894;2024-01-30T04:31:35;10.13;;;5.38;;
25946;SDS011;13745;51.470;9.894;2024-01-30T04:34:22;8.85;;;5.00;;
25946;SDS011;13745;51.470;9.894;2024-01-30T04:37:07;11.45;;;5.45;;
25946;SDS011;13745;51.470;9.894;2024-01-30T04:39:52;7.00;;;5.00;;
25946;SDS011;13745;51.470;9.894;2024-01-30T04:42:37;6.50;;;4.93;;
25946;SDS011;13745;51.470;9.894;2024-01-30T04:45:22;7.65;;;5.68;;
25946;SDS011;13745;51.470;9.894;2024-01-30T04:48:07;8.80;;;5.20;;
25946;SDS011;13745;51.470;9.894;2024-01-30T04:50:53;8.15;;;5.53;;
25946;SDS011;13745;51.470;9.894;2024-01-30T04:53:39;10.25;;;5.72;;
25946;SDS011;13745;51.470;9.894;2024-01-30T04:56:24;9.65;;;6.18;;
25946;SDS011;13745;51.470;9.894;2024-01-30T04:59:09;9.77;;;5.53;;
25946;SDS011;13745;51.470;9.894;2024-01-30T05:01:54;10.85;;;5.93;;
25946;SDS011;13745;51.470;9.894;2024-01-30T05:04:40;7.70;;;5.45;;
25946;SDS011;13745;51.470;9.894;2024-01-30T05:07:26;8.90;;;5.10;;
25946;SDS011;13745;51.470;9.894;2024-01-30T05:10:12;9.68;;;5.40;;
25946;SDS011;13745;51.470;9.894;2024-01-30T05:12:57;7.22;;;5.35;;
25946;SDS011;13745;51.470;9.894;2024-01-30T05:15:42;8.05;;;5.38;;
25946;SDS011;13745;51.470;9.894;2024-01-30T05:18:27;8.65;;;5.75;;
25946;SDS011;13745;51.470;9.894;2024-01-30T05:21:12;8.70;;;5.65;;
25946;SDS011;13745;51.470;9.894;2024-01-30T05:23:58;9.75;;;5.97;;
25946;SDS011;13745;51.470;9.894;2024-01-30T05:26:44;7.85;;;5.40;;
25946;SDS011;13745;51.470;9.894;2024-01-30T05:29:28;10.93;;;5.32;;
25946;SDS011;13745;51.470;9.894;2024-01-30T05:32:13;12.45;;;5.40;;
25946;SDS011;13745;51.470;9.894;2024-01-30T05:34:58;7.85;;;5.78;;
25946;SDS011;13745;51.470;9.894;2024-01-30T05:37:43;15.27;;;5.82;;
25946;SDS011;13745;51.470;9.894;2024-01-30T05:40:30;8.38;;;5.88;;
25946;SDS011;13745;51.470;9.894;2024-01-30T05:43:15;8.88;;;5.15;;
25946;SDS011;13745;51.470;9.894;2024-01-30T05:46:00;8.55;;;5.32;;
25946;SDS011;13745;51.470;9.894;2024-01-30T05:48:45;11.98;;;5.95;;
25946;SDS011;13745;51.470;9.894;2024-01-30T05:51:30;7.68;;;5.50;;
25946;SDS011;13745;51.470;9.894;2024-01-30T05:54:15;8.02;;;5.20;;
25946;SDS011;13745;51.470;9.894;2024-01-30T05:57:02;9.23;;;5.53;;
25946;SDS011;13745;51.470;9.894;2024-01-30T05:59:48;7.38;;;5.15;;
25946;SDS011;13745;51.470;9.894;2024-01-30T06:02:35;9.15;;;5.55;;
25946;SDS011;13745;51.470;9.894;2024-01-30T06:05:20;8.73;;;5.03;;
25946;SDS011;13745;51.470;9.894;2024-01-30T06:08:05;6.63;;;5.45;;
25946;SDS011;13745;51.470;9.894;2024-01-30T06:10:51;9.38;;;4.88;;
25946;SDS011;13745;51.470;9.894;2024-01-30T06:13:37;9.60;;;6.20;;
25946;SDS011;13745;51.470;9.894;2024-01-30T06:16:22;10.20;;;5.35;;
25946;SDS011;13745;51.470;9.894;2024-01-30T06:19:07;8.95;;;5.50;;
25946;SDS011;13745;51.470;9.894;2024-01-30T06:21:52;8.85;;;5.72;;
25946;SDS011;13745;51.470;9.894;2024-01-30T06:24:38;7.30;;;5.57;;
25946;SDS011;13745;51.470;9.894;2024-01-30T06:27:23;9.57;;;6.22;;
25946;SDS011;13745;51.470;9.894;2024-01-30T06:30:09;11.82;;;5.65;;
25946;SDS011;13745;51.470;9.894;2024-01-30T06:32:55;11.60;;;5.97;;
25946;SDS011;13745;51.470;9.894;2024-01-30T06:35:40;7.75;;;5.63;;
25946;SDS011;13745;51.470;9.894;2024-01-30T06:38:25;6.70;;;5.30;;
25946;SDS011;13745;51.470;9.894;2024-01-30T06:41:10;7.53;;;5.20;;
25946;SDS011;13745;51.470;9.894;2024-01-30T06:43:55;8.18;;;5.30;;
25946;SDS011;13745;51.470;9.894;2024-01-30T06:46:42;7.07;;;5.40;;
25946;SDS011;13745;51.470;9.894;2024-01-30T06:49:27;10.52;;;5.63;;
25946;SDS011;13745;51.470;9.894;2024-01-30T06:52:12;7.47;;;5.70;;
25946;SDS011;13745;51.470;9.894;2024-01-30T06:54:57;9.15;;;6.43;;
25946;SDS011;13745;51.470;9.894;2024-01-30T06:57:42;9.65;;;5.72;;
25946;SDS011;13745;51.470;9.894;2024-01-30T07:00:28;7.78;;;5.38;;
25946;SDS011;13745;51.470;9.894;2024-01-30T07:03:14;8.80;;;6.03;;
25946;SDS011;13745;51.470;9.894;2024-01-30T07:05:59;10.48;;;6.00;;
25946;SDS011;13745;51.470;9.894;2024-01-30T07:08:44;10.68;;;6.03;;
25946;SDS011;13745;51.470;9.894;2024-01-30T07:11:29;13.05;;;5.80;;
25946;SDS011;13745;51.470;9.894;2024-01-30T07:14:15;10.18;;;5.78;;
25946;SDS011;13745;51.470;9.894;2024-01-30T07:17:01;15.60;;;5.97;;
25946;SDS011;13745;51.470;9.894;2024-01-30T07:19:48;13.13;;;6.30;;
25946;SDS011;13745;51.470;9.894;2024-01-30T07:22:33;9.75;;;5.88;;
25946;SDS011;13745;51.470;9.894;2024-01-30T07:25:18;8.60;;;6.07;;
25946;SDS011;13745;51.470;9.894;2024-01-30T07:28:03;9.85;;;6.13;;
25946;SDS011;13745;51.470;9.894;2024-01-30T07:30:49;8.02;;;5.20;;
25946;SDS011;13745;51.470;9.894;2024-01-30T07:33:34;8.00;;;5.47;;
25946;SDS011;13745;51.470;9.894;2024-01-30T07:36:21;10.77;;;5.47;;
25946;SDS011;13745;51.470;9.894;2024-01-30T07:39:06;8.02;;;5.93;;
25946;SDS011;13745;51.470;9.894;2024-01-30T07:41:51;7.20;;;5.20;;
25946;SDS011;13745;51.470;9.894;2024-01-30T07:44:36;10.43;;;5.93;;
25946;SDS011;13745;51.470;9.894;2024-01-30T07:47:21;7.93;;;5.80;;
25946;SDS011;13745;51.470;9.894;2024-01-30T07:50:06;9.13;;;5.30;;
25946;SDS011;13745;51.470;9.894;2024-01-30T07:52:55;8.52;;;5.68;;
25946;SDS011;13745;51.470;9.894;2024-01-30T07:55:40;9.57;;;5.85;;
25946;SDS011;13745;51.470;9.894;2024-01-30T07:58:27;10.02;;;5.80;;
25946;SDS011;13745;51.470;9.894;2024-01-30T08:01:14;8.65;;;5.15;;
25946;SDS011;13745;51.470;9.894;2024-01-30T08:03:59;13.70;;;6.00;;
25946;SDS011;13745;51.470;9.894;2024-01-30T08:06:44;7.60;;;5.70;;
25946;SDS011;13745;51.470;9.894;2024-01-30T08:09:31;10.13;;;5.80;;
25946;SDS011;13745;51.470;9.894;2024-01-30T08:12:16;8.90;;;5.88;;
25946;SDS011;13745;51.470;9.894;2024-01-30T08:15:01;12.13;;;6.35;;
25946;SDS011;13745;51.470;9.894;2024-01-30T08:17:46;7.20;;;5.45;;
25946;SDS011;13745;51.470;9.894;2024-01-30T08:20:31;10.30;;;6.35;;
25946;SDS011;13745;51.470;9.894;2024-01-30T08:23:16;7.57;;;5.40;;
25946;SDS011;13745;51.470;9.894;2024-01-30T08:26:03;8.88;;;5.75;;
25946;SDS011;13745;51.470;9.894;2024-01-30T08:28:48;9.77;;;5.43;;
25946;SDS011;13745;51.470;9.894;2024-01-30T08:31:34;8.32;;;5.57;;
25946;SDS011;13745;51.470;9.894;2024-01-30T08:34:18;8.32;;;5.50;;
25946;SDS011;13745;51.470;9.894;2024-01-30T08:37:04;9.82;;;5.68;;
25946;SDS011;13745;51.470;9.894;2024-01-30T08:39:48;10.27;;;5.68;;
25946;SDS011;13745;51.470;9.894;2024-01-30T08:42:35;12.85;;;6.70;;
25946;SDS011;13745;51.470;9.894;2024-01-30T08:45:20;11.32;;;5.75;;
25946;SDS011;13745;51.470;9.894;2024-01-30T08:48:06;9.80;;;6.53;;
25946;SDS011;13745;51.470;9.894;2024-01-30T08:50:51;10.73;;;6.78;;
25946;SDS011;13745;51.470;9.894;2024-01-30T08:53:37;9.15;;;6.05;;
25946;SDS011;13745;51.470;9.894;2024-01-30T08:56:22;12.18;;;6.22;;
25946;SDS011;13745;51.470;9.894;2024-01-30T08:59:08;8.68;;;5.70;;
25946;SDS011;13745;51.470;9.894;2024-01-30T09:01:53;9.57;;;6.70;;
25946;SDS011;13745;51.470;9.894;2024-01-30T09:04:39;9.23;;;5.55;;
25946;SDS011;13745;51.470;9.894;2024-01-30T09:07:24;8.50;;;6.18;;
25946;SDS011;13745;51.470;9.894;2024-01-30T09:10:09;9.88;;;5.47;;
25946;SDS011;13745;51.470;9.894;2024-01-30T09:12:54;9.00;;;6.40;;
25946;SDS011;13745;51.470;9.894;2024-01-30T09:15:41;8.57;;;6.47;;
25946;SDS011;13745;51.470;9.894;2024-01-30T09:18:26;8.80;;;5.53;;
25946;SDS011;13745;51.470;9.894;2024-01-30T09:21:11;8.88;;;5.85;;
25946;SDS011;13745;51.470;9.894;2024-01-30T09:24:01;8.02;;;5.85;;
25946;SDS011;13745;51.470;9.894;2024-01-30T09:26:47;9.93;;;6.22;;
25946;SDS011;13745;51.470;9.894;2024-01-30T09:29:32;7.18;;;5.88;;
25946;SDS011;13745;51.470;9.894;2024-01-30T09:32:21;9.90;;;5.93;;
25946;SDS011;13745;51.470;9.894;2024-01-30T09:35:06;11.73;;;6.00;;
25946;SDS011;13745;51.470;9.894;2024-01-30T09:37:52;8.07;;;5.93;;
25946;SDS011;13745;51.470;9.894;2024-01-30T09:40:37;8.38;;;6.25;;
25946;SDS011;13745;51.470;9.894;2024-01-30T09:43:23;7.25;;;5.70;;
25946;SDS011;13745;51.470;9.894;2024-01-30T09:46:10;9.20;;;6.15;;
25946;SDS011;13745;51.470;9.894;2024-01-30T09:48:59;10.82;;;5.95;;
25946;SDS011;13745;51.470;9.894;2024-01-30T09:51:45;9.32;;;5.57;;
25946;SDS011;13745;51.470;9.894;2024-01-30T09:54:30;8.57;;;6.10;;
25946;SDS011;13745;51.470;9.894;2024-01-30T09:57:16;8.45;;;6.07;;
25946;SDS011;13745;51.470;9.894;2024-01-30T10:00:01;11.40;;;6.68;;
25946;SDS011;13745;51.470;9.894;2024-01-30T10:02:56;9.43;;;5.57;;
25946;SDS011;13745;51.470;9.894;2024-01-30T10:05:43;7.90;;;6.00;;
25946;SDS011;13745;51.470;9.894;2024-01-30T10:08:35;7.53;;;6.05;;
25946;SDS011;13745;51.470;9.894;2024-01-30T10:11:20;7.97;;;5.63;;
25946;SDS011;13745;51.470;9.894;2024-01-30T10:14:05;9.00;;;5.80;;
25946;SDS011;13745;51.470;9.894;2024-01-30T10:16:50;7.97;;;5.85;;
25946;SDS011;13745;51.470;9.894;2024-01-30T10:19:35;10.55;;;6.22;;
25946;SDS011;13745;51.470;9.894;2024-01-30T10:22:22;10.80;;;5.78;;
25946;SDS011;13745;51.470;9.894;2024-01-30T10:25:08;9.77;;;6.68;;
25946;SDS011;13745;51.470;9.894;2024-01-30T10:27:54;8.90;;;5.88;;
25946;SDS011;13745;51.470;9.894;2024-01-30T10:30:39;9.30;;;5.93;;
25946;SDS011;13745;51.470;9.894;2024-01-30T10:33:24;8.63;;;5.63;;
25946;SDS011;13745;51.470;9.894;2024-01-30T10:36:10;9.85;;;5.68;;
25946;SDS011;13745;51.470;9.894;2024-01-30T10:38:59;7.55;;;5.63;;
25946;SDS011;13745;51.470;9.894;2024-01-30T10:41:44;9.02;;;6.10;;
25946;SDS011;13745;51.470;9.894;2024-01-30T10:44:43;9.10;;;6.22;;
25946;SDS011;13745;51.470;9.894;2024-01-30T10:47:33;9.18;;;6.07;;
25946;SDS011;13745;51.470;9.894;2024-01-30T10:50:19;9.18;;;5.95;;
25946;SDS011;13745;51.470;9.894;2024-01-30T10:53:04;9.52;;;5.90;;
25946;SDS011;13745;51.470;9.894;2024-01-30T10:55:52;7.93;;;5.47;;
25946;SDS011;13745;51.470;9.894;2024-01-30T10:58:39;9.20;;;5.32;;
25946;SDS011;13745;51.470;9.894;2024-01-30T11:01:24;8.48;;;5.53;;
25946;SDS011;13745;51.470;9.894;2024-01-30T11:04:11;9.25;;;5.88;;
25946;SDS011;13745;51.470;9.894;2024-01-30T11:06:56;10.80;;;5.57;;
25946;SDS011;13745;51.470;9.894;2024-01-30T11:09:48;10.32;;;5.60;;
25946;SDS011;13745;51.470;9.894;2024-01-30T11:12:37;7.63;;;5.53;;
25946;SDS011;13745;51.470;9.894;2024-01-30T11:15:24;9.55;;;5.57;;
25946;SDS011;13745;51.470;9.894;2024-01-30T11:18:10;14.50;;;6.43;;
25946;SDS011;13745;51.470;9.894;2024-01-30T11:20:55;7.32;;;5.55;;
25946;SDS011;13745;51.470;9.894;2024-01-30T11:23:41;6.97;;;5.28;;
25946;SDS011;13745;51.470;9.894;2024-01-30T11:26:27;8.77;;;6.07;;
25946;SDS011;13745;51.470;9.894;2024-01-30T11:29:15;8.68;;;5.47;;
25946;SDS011;13745;51.470;9.894;2024-01-30T11:32:01;10.48;;;5.93;;
25946;SDS011;13745;51.470;9.894;2024-01-30T11:34:47;9.02;;;6.35;;
25946;SDS011;13745;51.470;9.894;2024-01-30T11:37:33;8.60;;;5.32;;
25946;SDS011;13745;51.470;9.894;2024-01-30T11:40:22;7.90;;;5.50;;
25946;SDS011;13745;51.470;9.894;2024-01-30T11:43:10;8.48;;;6.25;;
25946;SDS011;13745;51.470;9.894;2024-01-30T11:45:56;6.63;;;5.43;;
25946;SDS011;13745;51.470;9.894;2024-01-30T11:48:42;8.25;;;5.68;;
25946;SDS011;13745;51.470;9.894;2024-01-30T11:51:27;6.72;;;5.40;;
25946;SDS011;13745;51.470;9.894;2024-01-30T11:54:12;7.57;;;4.78;;
25946;SDS011;13745;51.470;9.894;2024-01-30T11:56:59;9.93;;;5.28;;
25946;SDS011;13745;51.470;9.894;2024-01-30T11:59:44;11.18;;;6.20;;
25946;SDS011;13745;51.470;9.894;2024-01-30T12:02:30;11.10;;;5.97;;
25946;SDS011;13745;51.470;9.894;2024-01-30T12:05:15;6.30;;;5.03;;
25946;SDS011;13745;51.470;9.894;2024-01-30T12:08:00;9.32;;;5.75;;
25946;SDS011;13745;51.470;9.894;2024-01-30T12:10:45;9.68;;;5.80;;
25946;SDS011;13745;51.470;9.894;2024-01-30T12:13:30;7.05;;;4.93;;
25946;SDS011;13745;51.470;9.894;2024-01-30T12:16:16;8.63;;;6.07;;
25946;SDS011;13745;51.470;9.894;2024-01-30T12:19:02;9.82;;;5.68;;
25946;SDS011;13745;51.470;9.894;2024-01-30T12:21:48;9.00;;;5.47;;
25946;SDS011;13745;51.470;9.894;2024-01-30T12:24:38;8.25;;;5.47;;
25946;SDS011;13745;51.470;9.894;2024-01-30T12:27:24;8.05;;;5.35;;
25946;SDS011;13745;51.470;9.894;2024-01-30T12:30:09;8.55;;;5.30;;
25946;SDS011;13745;51.470;9.894;2024-01-30T12:32:57;8.75;;;5.28;;
25946;SDS011;13745;51.470;9.894;2024-01-30T12:35:45;7.50;;;5.07;;
25946;SDS011;13745;51.470;9.894;2024-01-30T12:38:30;7.93;;;5.30;;
25946;SDS011;13745;51.470;9.894;2024-01-30T12:41:16;8.70;;;4.82;;
25946;SDS011;13745;51.470;9.894;2024-01-30T12:44:01;8.30;;;5.22;;
25946;SDS011;13745;51.470;9.894;2024-01-30T12:46:46;10.23;;;5.30;;
25946;SDS011;13745;51.470;9.894;2024-01-30T12:49:32;8.18;;;5.72;;
25946;SDS011;13745;51.470;9.894;2024-01-30T12:52:18;7.80;;;5.28;;
25946;SDS011;13745;51.470;9.894;2024-01-30T12:55:04;7.03;;;5.20;;
25946;SDS011;13745;51.470;9.894;2024-01-30T12:57:49;7.53;;;5.47;;
25946;SDS011;13745;51.470;9.894;2024-01-30T13:00:34;5.95;;;4.85;;
25946;SDS011;13745;51.470;9.894;2024-01-30T13:03:19;6.75;;;4.85;;
25946;SDS011;13745;51.470;9.894;2024-01-30T13:06:04;8.90;;;5.05;;
25946;SDS011;13745;51.470;9.894;2024-01-30T13:08:51;9.95;;;5.70;;
25946;SDS011;13745;51.470;9.894;2024-01-30T13:11:36;8.50;;;5.43;;
25946;SDS011;13745;51.470;9.894;2024-01-30T13:14:21;8.77;;;5.70;;
25946;SDS011;13745;51.470;9.894;2024-01-30T13:17:06;6.63;;;4.78;;
25946;SDS011;13745;51.470;9.894;2024-01-30T13:19:51;6.78;;;4.88;;
25946;SDS011;13745;51.470;9.894;2024-01-30T13:22:37;8.43;;;5.40;;
25946;SDS011;13745;51.470;9.894;2024-01-30T13:25:24;9.45;;;5.40;;
25946;SDS011;13745;51.470;9.894;2024-01-30T13:28:10;5.15;;;4.40;;
25946;SDS011;13745;51.470;9.894;2024-01-30T13:30:54;8.60;;;4.70;;
25946;SDS011;13745;51.470;9.894;2024-01-30T13:33:39;8.00;;;4.75;;
25946;SDS011;13745;51.470;9.894;2024-01-30T13:36:24;8.70;;;5.22;;
25946;SDS011;13745;51.470;9.894;2024-01-30T13:39:09;5.72;;;4.65;;
25946;SDS011;13745;51.470;9.894;2024-01-30T13:41:57;7.75;;;5.20;;
25946;SDS011;13745;51.470;9.894;2024-01-30T13:44:42;8.43;;;5.03;;
25946;SDS011;13745;51.470;9.894;2024-01-30T13:47:28;5.85;;;4.35;;
25946;SDS011;13745;51.470;9.894;2024-01-30T13:50:13;10.10;;;4.78;;
25946;SDS011;13745;51.470;9.894;2024-01-30T13:53:00;5.97;;;4.38;;
25946;SDS011;13745;51.470;9.894;2024-01-30T13:55:47;8.82;;;4.95;;
25946;SDS011;13745;51.470;9.894;2024-01-30T13:58:33;5.07;;;3.88;;
25946;SDS011;13745;51.470;9.894;2024-01-30T14:01:19;7.10;;;4.18;;
25946;SDS011;13745;51.470;9.894;2024-01-30T14:04:04;7.70;;;4.95;;
25946;SDS011;13745;51.470;9.894;2024-01-30T14:06:49;5.90;;;4.25;;
25946;SDS011;13745;51.470;9.894;2024-01-30T14:09:35;9.68;;;5.20;;
25946;SDS011;13745;51.470;9.894;2024-01-30T14:12:20;8.63;;;4.95;;
25946;SDS011;13745;51.470;9.894;2024-01-30T14:15:07;5.80;;;4.65;;
25946;SDS011;13745;51.470;9.894;2024-01-30T14:17:53;8.45;;;4.47;;
25946;SDS011;13745;51.470;9.894;2024-01-30T14:20:38;6.57;;;4.40;;
25946;SDS011;13745;51.470;9.894;2024-01-30T14:23:24;8.13;;;4.13;;
25946;SDS011;13745;51.470;9.894;2024-01-30T14:26:09;5.82;;;4.22;;
25946;SDS011;13745;51.470;9.894;2024-01-30T14:28:54;5.35;;;3.80;;
25946;SDS011;13745;51.470;9.894;2024-01-30T14:31:41;6.97;;;3.75;;
25946;SDS011;13745;51.470;9.894;2024-01-30T14:34:26;5.15;;;4.53;;
25946;SDS011;13745;51.470;9.894;2024-01-30T14:37:12;6.85;;;4.85;;
25946;SDS011;13745;51.470;9.894;2024-01-30T14:39:57;7.47;;;4.93;;
25946;SDS011;13745;51.470;9.894;2024-01-30T14:42:42;7.00;;;4.38;;
25946;SDS011;13745;51.470;9.894;2024-01-30T14:45:27;5.55;;;4.65;;
25946;SDS011;13745;51.470;9.894;2024-01-30T14:48:13;8.10;;;5.05;;
25946;SDS011;13745;51.470;9.894;2024-01-30T14:50:59;5.25;;;4.38;;
25946;SDS011;13745;51.470;9.894;2024-01-30T14:53:44;18.95;;;8.02;;
25946;SDS011;13745;51.470;9.894;2024-01-30T14:56:29;7.53;;;6.38;;
25946;SDS011;13745;51.470;9.894;2024-01-30T14:59:14;7.35;;;5.20;;
25946;SDS011;13745;51.470;9.894;2024-01-30T15:01:59;6.07;;;4.53;;
25946;SDS011;13745;51.470;9.894;2024-01-30T15:04:45;8.38;;;5.13;;
25946;SDS011;13745;51.470;9.894;2024-01-30T15:07:31;7.55;;;5.20;;
25946;SDS011;13745;51.470;9.894;2024-01-30T15:10:16;8.35;;;5.53;;
25946;SDS011;13745;51.470;9.894;2024-01-30T15:13:01;8.35;;;4.80;;
25946;SDS011;13745;51.470;9.894;2024-01-30T15:15:46;7.40;;;5.28;;
25946;SDS011;13745;51.470;9.894;2024-01-30T15:18:31;8.02;;;4.43;;
25946;SDS011;13745;51.470;9.894;2024-01-30T15:21:17;8.63;;;4.93;;
25946;SDS011;13745;51.470;9.894;2024-01-30T15:24:06;10.45;;;5.40;;
25946;SDS011;13745;51.470;9.894;2024-01-30T15:26:52;8.73;;;4.93;;
25946;SDS011;13745;51.470;9.894;2024-01-30T15:29:37;7.93;;;5.00;;
25946;SDS011;13745;51.470;9.894;2024-01-30T15:32:22;11.10;;;5.50;;
25946;SDS011;13745;51.470;9.894;2024-01-30T15:35:07;8.65;;;5.50;;
25946;SDS011;13745;51.470;9.894;2024-01-30T15:37:54;8.90;;;5.28;;
25946;SDS011;13745;51.470;9.894;2024-01-30T15:40:39;7.72;;;5.25;;
25946;SDS011;13745;51.470;9.894;2024-01-30T15:43:24;6.80;;;5.32;;
25946;SDS011;13745;51.470;9.894;2024-01-30T15:46:09;14.50;;;5.95;;
25946;SDS011;13745;51.470;9.894;2024-01-30T15:48:55;9.00;;;5.30;;
25946;SDS011;13745;51.470;9.894;2024-01-30T15:51:40;6.97;;;5.50;;
25946;SDS011;13745;51.470;9.894;2024-01-30T15:54:26;8.05;;;5.20;;
25946;SDS011;13745;51.470;9.894;2024-01-30T15:57:11;9.82;;;5.70;;
25946;SDS011;13745;51.470;9.894;2024-01-30T15:59:56;8.70;;;5.70;;
25946;SDS011;13745;51.470;9.894;2024-01-30T16:02:41;7.57;;;5.30;;
25946;SDS011;13745;51.470;9.894;2024-01-30T16:05:27;11.50;;;6.00;;
25946;SDS011;13745;51.470;9.894;2024-01-30T16:08:12;9.63;;;5.85;;
25946;SDS011;13745;51.470;9.894;2024-01-30T16:10:59;7.75;;;5.30;;
25946;SDS011;13745;51.470;9.894;2024-01-30T16:13:44;8.52;;;5.35;;
25946;SDS011;13745;51.470;9.894;2024-01-30T16:16:29;11.35;;;5.75;;
25946;SDS011;13745;51.470;9.894;2024-01-30T16:19:14;11.15;;;5.88;;
25946;SDS011;13745;51.470;9.894;2024-01-30T16:21:59;7.80;;;7.00;;
25946;SDS011;13745;51.470;9.894;2024-01-30T16:24:44;9.15;;;7.68;;
25946;SDS011;13745;51.470;9.894;2024-01-30T16:27:31;9.10;;;7.85;;
25946;SDS011;13745;51.470;9.894;2024-01-30T16:30:17;13.27;;;10.25;;
25946;SDS011;13745;51.470;9.894;2024-01-30T16:33:02;12.35;;;9.88;;
25946;SDS011;13745;51.470;9.894;2024-01-30T16:35:47;13.02;;;8.20;;